sensor_id;sensor_type;location;lat;lon;timestamp;pressure;altitude;pressure_sealevel;temperature;humidity
55311;BME280;41173;52.634;-8.666;2024-02-15T16:44:34;146576.53;;;10.98;100.00
55311;BME280;41173;52.634;-8.666;2024-02-15T16:47:00;146624.91;;;11.18;100.00
55311;BME280;41173;52.634;-8.666;2024-02-15T16:49:25;146675.75;;;11.38;100.00
55311;BME280;41173;52.634;-8.666;2024-02-15T16:51:51;146702.50;;;11.49;100.00
55311;BME280;41173;52.634;-8.666;2024-02-15T16:54:17;146705.00;;;11.50;100.00
55311;BME280;41173;52.634;-8.666;2024-02-15T16:56:42;146657.94;;;11.31;100.00
55311;BME280;41173;52.634;-8.666;2024-02-15T16:59:08;146689.78;;;11.44;100.00
55311;BME280;41173;52.634;-8.666;2024-02-15T17:01:37;146675.75;;;11.38;100.00
55311;BME280;41173;52.634;-8.666;2024-02-15T17:04:03;146684.63;;;11.42;100.00
55311;BME280;41173;52.634;-8.666;2024-02-15T17:06:31;146688.47;;;11.43;100.00
55311;BME280;41173;52.634;-8.666;2024-02-15T17:08:57;146677.03;;;11.39;100.00
55311;BME280;41173;52.634;-8.666;2024-02-15T17:11:22;146637.56;;;11.23;100.00
55311;BME280;41173;52.634;-8.666;2024-02-15T17:13:48;146649.03;;;11.27;100.00
55311;BME280;41173;52.634;-8.666;2024-02-15T17:16:16;146641.41;;;11.24;100.00
55311;BME280;41173;52.634;-8.666;2024-02-15T17:18:42;146424.47;;;11.23;100.00
55311;BME280;41173;52.634;-8.666;2024-02-15T17:21:08;146339.75;;;11.19;100.00
55311;BME280;41173;52.634;-8.666;2024-02-15T17:23:34;145234.56;;;11.38;100.00
55311;BME280;41173;52.634;-8.666;2024-02-15T17:26:00;144608.84;;;11.28;100.00
55311;BME280;41173;52.634;-8.666;2024-02-15T17:28:26;144595.00;;;11.23;100.00
55311;BME280;41173;52.634;-8.666;2024-02-15T17:30:52;142570.56;;;11.17;100.00
55311;BME280;41173;52.634;-8.666;2024-02-15T17:33:18;140442.00;;;11.19;100.00
55311;BME280;41173;52.634;-8.666;2024-02-15T17:35:44;138542.50;;;11.23;100.00
55311;BME280;41173;52.634;-8.666;2024-02-15T17:38:10;137761.25;;;11.22;100.00
55311;BME280;41173;52.634;-8.666;2024-02-15T17:40:36;135927.97;;;11.21;100.00
55311;BME280;41173;52.634;-8.666;2024-02-15T17:43:03;134288.97;;;11.25;100.00
55311;BME280;41173;52.634;-8.666;2024-02-15T17:45:28;134876.81;;;11.27;100.00
55311;BME280;41173;52.634;-8.666;2024-02-15T17:47:55;133206.06;;;11.20;100.00
55311;BME280;41173;52.634;-8.666;2024-02-15T17:50:21;131015.16;;;11.19;100.00
55311;BME280;41173;52.634;-8.666;2024-02-15T17:52:49;130238.59;;;11.14;100.00
55311;BME280;41173;52.634;-8.666;2024-02-15T17:55:17;124907.81;;;11.53;100.00
55311;BME280;41173;52.634;-8.666;2024-02-15T17:57:45;125988.97;;;11.21;100.00
55311;BME280;41173;52.634;-8.666;2024-02-15T18:00:11;123594.72;;;11.19;100.00
55311;BME280;41173;52.634;-8.666;2024-02-15T18:02:45;121453.56;;;11.17;100.00
55311;BME280;41173;52.634;-8.666;2024-02-15T18:05:14;116106.25;;;11.32;100.00
55311;BME280;41173;52.634;-8.666;2024-02-15T18:07:40;120930.56;;;11.10;100.00
55311;BME280;41173;52.634;-8.666;2024-02-15T18:10:06;119065.91;;;11.04;100.00
55311;BME280;41173;52.634;-8.666;2024-02-15T18:12:37;117848.66;;;10.89;100.00
55311;BME280;41173;52.634;-8.666;2024-02-15T18:15:08;118403.28;;;10.90;100.00
55311;BME280;41173;52.634;-8.666;2024-02-15T18:17:38;117522.81;;;10.83;100.00
55311;BME280;41173;52.634;-8.666;2024-02-15T18:20:07;114393.31;;;10.79;100.00
55311;BME280;41173;52.634;-8.666;2024-02-15T18:22:32;112722.22;;;10.76;100.00
55311;BME280;41173;52.634;-8.666;2024-02-15T18:24:58;109943.41;;;10.70;100.00
55311;BME280;41173;52.634;-8.666;2024-02-15T18:27:23;110163.59;;;10.78;100.00
55311;BME280;41173;52.634;-8.666;2024-02-15T18:29:49;108849.63;;;10.82;100.00
55311;BME280;41173;52.634;-8.666;2024-02-15T18:32:14;107634.47;;;10.80;100.00
55311;BME280;41173;52.634;-8.666;2024-02-15T18:34:42;110513.25;;;10.76;100.00
55311;BME280;41173;52.634;-8.666;2024-02-15T18:37:08;108759.81;;;10.62;100.00
55311;BME280;41173;52.634;-8.666;2024-02-15T18:39:33;107280.75;;;10.61;100.00
55311;BME280;41173;52.634;-8.666;2024-02-15T18:41:59;106370.91;;;10.63;100.00
55311;BME280;41173;52.634;-8.666;2024-02-15T18:44:30;107416.84;;;10.60;100.00
55311;BME280;41173;52.634;-8.666;2024-02-15T18:46:56;104895.56;;;10.65;100.00
55311;BME280;41173;52.634;-8.666;2024-02-15T18:49:24;106954.94;;;10.54;100.00
55311;BME280;41173;52.634;-8.666;2024-02-15T18:51:49;105054.59;;;10.55;100.00
55311;BME280;41173;52.634;-8.666;2024-02-15T18:54:16;104545.38;;;10.54;100.00
55311;BME280;41173;52.634;-8.666;2024-02-15T18:56:44;102435.53;;;10.56;100.00
55311;BME280;41173;52.634;-8.666;2024-02-15T18:59:09;101453.66;;;10.49;100.00
55311;BME280;41173;52.634;-8.666;2024-02-15T19:01:35;100266.16;;;10.44;100.00
55311;BME280;41173;52.634;-8.666;2024-02-15T19:04:00;98231.69;;;10.42;100.00
55311;BME280;41173;52.634;-8.666;2024-02-15T19:06:27;98012.66;;;10.40;100.00
55311;BME280;41173;52.634;-8.666;2024-02-15T19:08:53;95514.31;;;10.40;100.00
55311;BME280;41173;52.634;-8.666;2024-02-15T19:11:18;92517.44;;;10.43;100.00
55311;BME280;41173;52.634;-8.666;2024-02-15T19:13:44;93357.31;;;10.38;100.00
55311;BME280;41173;52.634;-8.666;2024-02-15T19:16:10;92737.78;;;10.30;100.00
55311;BME280;41173;52.634;-8.666;2024-02-15T19:18:38;92499.09;;;10.28;100.00
55311;BME280;41173;52.634;-8.666;2024-02-15T19:21:04;91591.06;;;10.22;100.00
55311;BME280;41173;52.634;-8.666;2024-02-15T19:23:30;88228.41;;;10.23;100.00
55311;BME280;41173;52.634;-8.666;2024-02-15T19:25:56;86954.44;;;10.23;100.00
55311;BME280;41173;52.634;-8.666;2024-02-15T19:28:22;86939.81;;;10.22;100.00
55311;BME280;41173;52.634;-8.666;2024-02-15T19:30:51;84828.72;;;10.26;100.00
55311;BME280;41173;52.634;-8.666;2024-02-15T19:33:17;85207.03;;;10.18;100.00
55311;BME280;41173;52.634;-8.666;2024-02-15T19:35:43;85170.31;;;10.11;100.00
55311;BME280;41173;52.634;-8.666;2024-02-15T19:38:09;84857.50;;;10.12;100.00
55311;BME280;41173;52.634;-8.666;2024-02-15T19:40:34;84122.06;;;10.07;100.00
55311;BME280;41173;52.634;-8.666;2024-02-15T19:43:01;81567.00;;;9.99;100.00
55311;BME280;41173;52.634;-8.666;2024-02-15T19:45:27;80707.03;;;10.00;100.00
55311;BME280;41173;52.634;-8.666;2024-02-15T19:47:52;79577.25;;;9.94;100.00
55311;BME280;41173;52.634;-8.666;2024-02-15T19:50:20;78504.94;;;9.97;100.00
55311;BME280;41173;52.634;-8.666;2024-02-15T19:52:51;78161.09;;;9.96;100.00
55311;BME280;41173;52.634;-8.666;2024-02-15T19:55:16;76634.91;;;9.98;100.00
55311;BME280;41173;52.634;-8.666;2024-02-15T19:57:42;75464.38;;;9.98;100.00
55311;BME280;41173;52.634;-8.666;2024-02-15T20:00:08;74420.16;;;9.95;100.00
55311;BME280;41173;52.634;-8.666;2024-02-15T20:02:38;72049.59;;;9.95;100.00
55311;BME280;41173;52.634;-8.666;2024-02-15T20:05:04;70397.81;;;9.95;100.00
55311;BME280;41173;52.634;-8.666;2024-02-15T20:07:32;71024.22;;;9.89;100.00
55311;BME280;41173;52.634;-8.666;2024-02-15T20:10:04;69613.84;;;9.85;100.00
55311;BME280;41173;52.634;-8.666;2024-02-15T20:12:35;69171.63;;;9.88;100.00
55311;BME280;41173;52.634;-8.666;2024-02-15T20:15:00;68210.13;;;9.80;100.00
55311;BME280;41173;52.634;-8.666;2024-02-15T20:17:26;68506.88;;;9.69;100.00
55311;BME280;41173;52.634;-8.666;2024-02-15T20:19:51;67566.19;;;9.60;100.00
55311;BME280;41173;52.634;-8.666;2024-02-15T20:22:17;67986.75;;;9.63;100.00
55311;BME280;41173;52.634;-8.666;2024-02-15T20:24:43;68913.47;;;9.51;100.00
55311;BME280;41173;52.634;-8.666;2024-02-15T20:27:10;66829.78;;;9.45;100.00
55311;BME280;41173;52.634;-8.666;2024-02-15T20:29:36;64427.09;;;9.55;100.00
55311;BME280;41173;52.634;-8.666;2024-02-15T20:32:06;62430.50;;;9.57;100.00
55311;BME280;41173;52.634;-8.666;2024-02-15T20:34:32;60768.22;;;9.59;100.00
55311;BME280;41173;52.634;-8.666;2024-02-15T20:36:58;59442.56;;;9.65;100.00
55311;BME280;41173;52.634;-8.666;2024-02-15T20:39:24;59445.75;;;9.68;100.00
55311;BME280;41173;52.634;-8.666;2024-02-15T20:41:49;58445.66;;;9.67;100.00
55311;BME280;41173;52.634;-8.666;2024-02-15T20:44:16;57123.50;;;9.75;100.00
55311;BME280;41173;52.634;-8.666;2024-02-15T20:46:41;57451.59;;;9.71;100.00
55311;BME280;41173;52.634;-8.666;2024-02-15T20:49:07;55793.84;;;9.76;100.00
55311;BME280;41173;52.634;-8.666;2024-02-15T20:51:32;57116.78;;;9.69;100.00
55311;BME280;41173;52.634;-8.666;2024-02-15T20:54:00;56453.53;;;9.71;100.00
55311;BME280;41173;52.634;-8.666;2024-02-15T20:56:26;55789.28;;;9.72;100.00
55311;BME280;41173;52.634;-8.666;2024-02-15T20:58:51;58761.53;;;9.50;100.00
55311;BME280;41173;52.634;-8.666;2024-02-15T21:01:18;56772.34;;;9.57;100.00
55311;BME280;41173;52.634;-8.666;2024-02-15T21:03:44;57764.50;;;9.51;100.00
55311;BME280;41173;52.634;-8.666;2024-02-15T21:06:19;57089.97;;;9.42;100.00
55311;BME280;41173;52.634;-8.666;2024-02-15T21:08:54;57410.63;;;9.30;100.00
55311;BME280;41173;52.634;-8.666;2024-02-15T21:11:24;54424.59;;;9.36;100.00
55311;BME280;41173;52.634;-8.666;2024-02-15T21:13:53;54091.34;;;9.35;100.00
55311;BME280;41173;52.634;-8.666;2024-02-15T21:16:19;53756.19;;;9.32;100.00
55311;BME280;41173;52.634;-8.666;2024-02-15T21:18:49;53087.00;;;9.27;100.00
55311;BME280;41173;52.634;-8.666;2024-02-15T21:21:18;52763.50;;;9.36;100.00
55311;BME280;41173;52.634;-8.666;2024-02-15T21:23:44;52098.34;;;9.35;100.00
55311;BME280;41173;52.634;-8.666;2024-02-15T21:26:10;52431.88;;;9.36;100.00
55311;BME280;41173;52.634;-8.666;2024-02-15T21:28:37;53087.47;;;9.27;100.00
55311;BME280;41173;52.634;-8.666;2024-02-15T21:31:05;52427.56;;;9.32;100.00
55311;BME280;41173;52.634;-8.666;2024-02-15T21:33:34;52104.00;;;9.41;100.00
55311;BME280;41173;52.634;-8.666;2024-02-15T21:35:59;51766.72;;;9.35;100.00
55311;BME280;41173;52.634;-8.666;2024-02-15T21:38:25;50438.25;;;9.35;100.00
55311;BME280;41173;52.634;-8.666;2024-02-15T21:40:51;49781.22;;;9.43;100.00
55311;BME280;41173;52.634;-8.666;2024-02-15T21:43:16;50451.13;;;9.49;100.00
55311;BME280;41173;52.634;-8.666;2024-02-15T21:45:42;49785.75;;;9.48;100.00
55311;BME280;41173;52.634;-8.666;2024-02-15T21:48:08;49788.50;;;9.51;100.00
55311;BME280;41173;52.634;-8.666;2024-02-15T21:50:33;48789.13;;;9.47;100.00
55311;BME280;41173;52.634;-8.666;2024-02-15T21:52:59;47133.56;;;9.51;100.00
55311;BME280;41173;52.634;-8.666;2024-02-15T21:55:25;45809.72;;;9.54;100.00
55311;BME280;41173;52.634;-8.666;2024-02-15T21:57:50;45146.03;;;9.54;100.00
55311;BME280;41173;52.634;-8.666;2024-02-15T22:00:16;44814.44;;;9.54;100.00
55311;BME280;41173;52.634;-8.666;2024-02-15T22:02:41;43817.81;;;9.51;100.00
55311;BME280;41173;52.634;-8.666;2024-02-15T22:05:07;44150.94;;;9.53;100.00
55311;BME280;41173;52.634;-8.666;2024-02-15T22:07:33;42828.66;;;9.58;100.00
55311;BME280;41173;52.634;-8.666;2024-02-15T22:09:58;41501.63;;;9.56;100.00
55311;BME280;41173;52.634;-8.666;2024-02-15T22:12:24;39190.09;;;9.66;100.00
55311;BME280;41173;52.634;-8.666;2024-02-15T22:14:49;39853.59;;;9.67;100.00
55311;BME280;41173;52.634;-8.666;2024-02-15T22:17:19;39851.38;;;9.64;100.00
55311;BME280;41173;52.634;-8.666;2024-02-15T22:19:44;38852.03;;;9.56;100.00
55311;BME280;41173;52.634;-8.666;2024-02-15T22:22:11;38194.94;;;9.63;100.00
55311;BME280;41173;52.634;-8.666;2024-02-15T22:24:37;37200.13;;;9.60;100.00
55311;BME280;41173;52.634;-8.666;2024-02-15T22:27:03;36206.66;;;9.59;100.00
55311;BME280;41173;52.634;-8.666;2024-02-15T22:29:29;35873.75;;;9.56;100.00
55311;BME280;41173;52.634;-8.666;2024-02-15T22:31:55;35208.13;;;9.50;100.00
55311;BME280;41173;52.634;-8.666;2024-02-15T22:34:21;33557.59;;;9.55;100.00
55311;BME280;41173;52.634;-8.666;2024-02-15T22:36:47;32895.16;;;9.53;100.00
55311;BME280;41173;52.634;-8.666;2024-02-15T22:39:12;33887.94;;;9.54;100.00
55311;BME280;41173;52.634;-8.666;2024-02-15T22:41:37;33886.66;;;9.52;100.00
55311;BME280;41173;52.634;-8.666;2024-02-15T22:44:03;33888.25;;;9.55;100.00
55311;BME280;41173;52.634;-8.666;2024-02-15T22:46:29;33558.91;;;9.57;100.00
55311;BME280;41173;52.634;-8.666;2024-02-15T22:48:57;33233.00;;;9.65;100.00
55311;BME280;41173;52.634;-8.666;2024-02-15T22:51:22;32898.59;;;9.58;100.00
55311;BME280;41173;52.634;-8.666;2024-02-15T22:53:48;32233.75;;;9.52;100.00
55311;BME280;41173;52.634;-8.666;2024-02-15T22:56:17;31248.94;;;9.64;100.00
55311;BME280;41173;52.634;-8.666;2024-02-15T22:58:43;30589.81;;;9.67;100.00
55311;BME280;41173;52.634;-8.666;2024-02-15T23:01:10;30585.69;;;9.59;100.00
55311;BME280;41173;52.634;-8.666;2024-02-15T23:03:36;29596.31;;;9.63;100.00
55311;BME280;41173;52.634;-8.666;2024-02-15T23:06:03;29922.63;;;9.55;100.00
55311;BME280;41173;52.634;-8.666;2024-02-15T23:08:31;28935.69;;;9.63;100.00
55311;BME280;41173;52.634;-8.666;2024-02-15T23:10:57;27941.16;;;9.55;100.00
55311;BME280;41173;52.634;-8.666;2024-02-15T23:13:23;27936.78;;;9.47;100.00
55311;BME280;41173;52.634;-8.666;2024-02-15T23:15:49;26947.34;;;9.49;100.00
55311;BME280;41173;52.634;-8.666;2024-02-15T23:18:15;25960.69;;;9.55;100.00
55311;BME280;41173;52.634;-8.666;2024-02-15T23:20:41;25301.25;;;9.56;100.00
55311;BME280;41173;52.634;-8.666;2024-02-15T23:23:11;24644.84;;;9.64;100.00
55311;BME280;41173;52.634;-8.666;2024-02-15T23:25:41;24311.53;;;9.56;100.00
55311;BME280;41173;52.634;-8.666;2024-02-15T23:28:07;23322.53;;;9.57;100.00
